• Join FlightAware (Why Join?)
  • Login
  • US Flag 
07:30PM EDT


 

Airport Tracker/Info


-or-


 

Live Flight TrackerFlight Track Log ✈ SWA565 ✈ 21-Apr-2013 ✈ KSLC - KLAS

Flight Track Log - Related Links

Times and Time Zones

All times are in EDT time to prevent confusion due to time zone crossing. See the SWA565 flight status page for this flight to view local times or setup timezone preferences in your user account.

Time Position Orientation Groundspeed Altitude Reporting Facility
EDT Latitude Longitude Course Direction KTS MPH feet Rate Location/Type
11:18PM 40.8217 -111.9797 269° West 313 360 5,400  Level Salt Lake Center
11:18PM 40.8214 -111.9997 269° West 313 360 5,400 2,100 Level Salt Lake Center
11:18PM 40.8175 -112.0239 258° West 230 265 6,900 3,660 Climbing Salt Lake Center
11:19PM 40.8258 -112.0889 280° West 234 269 9,500 1,860 Climbing Salt Lake Center
11:20PM 40.8150 -112.1892 262° West 278 320 10,600 1,440 Climbing Salt Lake Center
11:21PM 40.7653 -112.2633 228° Southwest 286 329 12,700 2,040 Climbing Salt Lake Center
11:22PM 40.6647 -112.2950 193° South 315 362 14,800 2,400 Climbing Salt Lake Center
11:23PM 40.5800 -112.3092 187° South 309 356 17,700 2,400 Climbing Salt Lake Center
11:24PM 40.4842 -112.3292 189° South 348 400 19,800 2,100 Climbing Salt Lake Center
11:25PM 40.3775 -112.3517 189° South 387 445 22,000 2,400 Climbing Salt Lake Center
11:26PM 40.2753 -112.4008 200° South 391 450 24,700 2,220 Climbing Salt Lake Center
11:27PM 40.1822 -112.4678 209° Southwest 386 444 26,600 1,800 Climbing Salt Lake Center
11:28PM 40.0831 -112.5381 208° Southwest 403 464 28,500 1,860 Climbing Salt Lake Center
11:29PM 39.9822 -112.6086 208° Southwest 411 473 30,500 1,680 Climbing Salt Lake Center
11:31PM 39.8831 -112.6792 209° Southwest 407 468 32,000 720 Climbing Salt Lake Center
11:32PM 39.7592 -112.7631 208° Southwest 414 476 32,000  Level Salt Lake Center
11:33PM 39.6694 -112.8181 205° Southwest 425 489 32,000  Level Salt Lake Center
11:34PM 39.5133 -112.8436 187° South 468 539 32,000  Level Salt Lake Center
11:35PM 39.3831 -112.8608 186° South 470 541 32,000  Level Salt Lake Center
11:36PM 39.2539 -112.8814 187° South 469 540 32,000  Level Salt Lake Center
11:37PM 39.1247 -112.9019 187° South 467 537 32,000  Level Salt Lake Center
11:38PM 38.9958 -112.9208 186° South 467 537 32,000  Level Salt Lake Center
11:39PM 38.8664 -112.9392 186° South 466 536 32,000 -540 Level Salt Lake Center
11:40PM 38.7372 -112.9594 187° South 468 539 31,000 -1,020 Descending Salt Lake Center
11:41PM 38.6092 -112.9775 186° South 464 534 30,000 -540 Descending Salt Lake Center
11:42PM 38.4844 -112.9967 187° South 455 524 30,000  Level Salt Lake Center
11:43PM 38.3564 -113.0194 188° South 462 532 30,000  Level Salt Lake Center
11:44PM 38.2239 -113.0983 205° Southwest 437 503 30,000  Level Salt Lake Center
11:45PM 38.1156 -113.1653 206° Southwest 435 501 30,000  Level Salt Lake Center
11:46PM 38.0078 -113.2308 206° Southwest 435 501 30,000  Level Salt Lake Center
11:47PM 37.9014 -113.2953 206° Southwest 431 496 30,000  Level Salt Lake Center
11:48PM 37.7942 -113.3611 206° Southwest 431 496 30,000  Level Salt Lake Center
11:49PM 37.6861 -113.4256 205° Southwest 433 498 30,000  Level Salt Lake Center
11:50PM 37.5744 -113.4914 205° Southwest 443 510 30,000  Level Salt Lake Center
11:51PM 37.4611 -113.5583 205° Southwest 450 518 30,000  Level Salt Lake Center
11:52PM 37.3500 -113.6242 205° Southwest 447 514 30,000  Level Salt Lake Center
11:53PM 37.2183 -113.7031 206° Southwest 441 507 30,000  Level Salt Lake Center
11:54PM 37.1217 -113.7936 217° Southwest 439 505 30,000 -60 Level Los Angeles Center
11:55PM 37.0267 -113.8844 217° Southwest 434 499 29,900 -1,320 Descending Los Angeles Center
11:56PM 36.9403 -113.9650 217° Southwest 438 504 27,300 -2,880 Descending Los Angeles Center
11:57PM 36.8297 -114.0714 218° Southwest 420 483 24,000 -2,760 Descending Los Angeles Center
11:58PM 36.7503 -114.1461 217° Southwest 399 459 21,700 -2,460 Descending Los Angeles Center
11:59PM 36.6594 -114.2311 217° Southwest 378 435 19,000 -2,520 Descending Los Angeles Center
12:00AM 36.5808 -114.3064 218° Southwest 361 415 16,600 -2,400 Descending Los Angeles Center
12:01AM 36.5025 -114.3789 217° Southwest 353 406 14,200 -2,160 Descending Los Angeles Center
12:02AM 36.4264 -114.4494 217° Southwest 343 395 12,200 -1,500 Descending Los Angeles Center
12:03AM 36.3878 -114.4822 214° Southwest 330 380 12,000 -240 Descending Los Angeles Center
12:03AM 36.3467 -114.4925 191° South 322 371 12,000 -240 Level Los Angeles Center
12:04AM 36.2983 -114.5072 194° South 310 357 11,800 -1,020 Descending Los Angeles Center
12:04AM 36.2636 -114.5164 192° South 306 352 11,000 -1,380 Descending Los Angeles Center
12:05AM 36.2250 -114.5667 226° Southwest 303 349 10,300 -1,020 Descending Los Angeles Center
12:05AM 36.2067 -114.5886 224° Southwest 288 331 10,000 -1,140 Descending Los Angeles Center
12:06AM 36.1767 -114.6311 229° Southwest 278 320 9,300 -900 Descending Los Angeles Center
12:06AM 36.1614 -114.6794 249° West 267 307 9,100 -720 Descending Los Angeles Center
12:07AM 36.1547 -114.7186 258° West 246 283 8,500 -1,140 Descending Los Angeles Center
12:07AM 36.1472 -114.7578 257° West 237 273 8,000 -1,140 Descending Los Angeles Center
12:08AM 36.1422 -114.7894 259° West 231 266 7,500 -1,200 Descending Los Angeles Center
12:08AM 36.1400 -114.8356 267° West 230 265 6,800 -1,140 Descending Los Angeles Center
12:09AM 36.1389 -114.8625 267° West 230 265 6,500 -840 Descending Los Angeles Center
12:09AM 36.1353 -114.9139 265° West 229 264 6,000 -480 Descending Los Angeles Center
12:10AM 36.1336 -114.9467 266° West 209 241 6,000 -540 Level Los Angeles Center
12:10AM 36.1331 -114.9803 269° West 204 235 5,500 -1,140 Descending Los Angeles Center
12:11AM 36.1361 -115.0072 278° West 176 203 4,900 -1,200 Descending Los Angeles Center
12:11AM 36.1378 -115.0383 274° West 180 207 4,300 -1,200 Descending Los Angeles Center
12:12AM 36.1392 -115.0808 272° West 158 182 3,500 -780 Descending Los Angeles Center
12:12AM 36.1406 -115.0925 278° West 170 196 3,500 -420 Level Los Angeles Center
12:13AM 36.1336 -115.1147 249° West 130 150 3,200 -600 Descending Los Angeles Center
12:13AM 36.1297 -115.1339 256° West 143 165 2,900 -840 Descending Los Angeles Center
12:14AM 36.1147 -115.1475 216° Southwest 130 150 2,400 -780 Descending Los Angeles Center
12:14AM 36.1003 -115.1561 206° Southwest 129 148 2,100 -480 Descending Los Angeles Center
12:16AM 36.0801 -115.1523 219° Southwest  Level Estimated